createdAt,value
2023-05-05T00:01:42.453Z,46.92
2023-05-05T00:04:45.333Z,47.04
2023-05-05T00:07:49.617Z,46.90
2023-05-05T00:10:54.127Z,47.05
2023-05-05T00:13:56.902Z,46.92
2023-05-05T00:16:59.728Z,47.05
2023-05-05T00:20:02.490Z,47.16
2023-05-05T00:23:06.845Z,47.13
2023-05-05T00:26:09.617Z,46.98
2023-05-05T00:29:14.090Z,46.78
2023-05-05T00:32:16.911Z,46.77
2023-05-05T00:35:19.757Z,46.84
2023-05-05T00:38:23.933Z,46.98
2023-05-05T00:41:26.740Z,46.88
2023-05-05T00:44:37.897Z,47.17
2023-05-05T00:47:42.738Z,46.99
2023-05-05T00:50:45.924Z,46.84
2023-05-05T00:53:50.265Z,46.77
2023-05-05T00:56:53.436Z,46.52
2023-05-05T00:59:57.364Z,46.49
2023-05-05T01:03:00.783Z,46.67
2023-05-05T01:06:16.512Z,46.74
2023-05-05T01:09:29.662Z,46.52
2023-05-05T01:12:42.479Z,46.68
2023-05-05T01:15:49.182Z,46.71
2023-05-05T01:18:57.728Z,46.64
2023-05-05T01:22:03.451Z,46.53
2023-05-05T01:25:37.972Z,46.50
2023-05-05T01:29:02.140Z,46.51
2023-05-05T01:32:10.420Z,46.32
2023-05-05T01:35:19.234Z,46.40
2023-05-05T01:38:26.093Z,46.53
2023-05-05T01:41:33.072Z,46.33
2023-05-05T01:47:45.090Z,46.87
2023-05-05T01:50:49.779Z,46.72
2023-05-05T01:53:55.453Z,46.77
2023-05-05T01:57:00.121Z,46.62
2023-05-05T02:00:06.134Z,46.72
2023-05-05T02:03:20.740Z,46.76
2023-05-05T02:06:25.579Z,46.70
2023-05-05T02:09:29.618Z,46.76
2023-05-05T02:12:35.218Z,46.66
2023-05-05T02:15:39.397Z,46.81
2023-05-05T02:18:44.185Z,46.92
2023-05-05T02:21:47.016Z,46.95
2023-05-05T02:24:49.790Z,47.04
2023-05-05T02:28:00.579Z,46.95
2023-05-05T02:31:06.803Z,47.00
2023-05-05T02:34:12.297Z,47.18
2023-05-05T02:37:21.049Z,46.78
2023-05-05T02:40:29.715Z,46.73
2023-05-05T02:43:34.092Z,46.66
2023-05-05T02:46:38.902Z,46.74
2023-05-05T02:49:43.868Z,46.57
2023-05-05T02:52:47.046Z,46.43
2023-05-05T02:55:54.787Z,46.54
2023-05-05T02:59:09.912Z,46.44
2023-05-05T03:02:19.147Z,46.62
2023-05-05T03:05:29.346Z,46.49
2023-05-05T03:08:42.146Z,46.56
2023-05-05T03:11:48.854Z,46.60
2023-05-05T03:14:55.366Z,46.79
2023-05-05T03:18:01.281Z,46.86
2023-05-05T03:21:09.001Z,46.92
2023-05-05T03:24:16.431Z,46.83
2023-05-05T03:27:23.356Z,46.66
2023-05-05T03:30:27.281Z,46.64
2023-05-05T03:33:30.016Z,46.64
2023-05-05T03:36:36.993Z,46.72
2023-05-05T03:39:39.957Z,46.67
2023-05-05T03:42:44.080Z,46.73
2023-05-05T03:45:47.377Z,46.65
2023-05-05T03:48:50.347Z,46.84
2023-05-05T03:51:54.480Z,46.79
2023-05-05T03:54:57.765Z,46.87
2023-05-05T03:58:00.545Z,46.70
2023-05-05T04:01:03.900Z,46.74
2023-05-05T04:04:06.832Z,46.71
2023-05-05T04:07:11.172Z,46.70
2023-05-05T04:10:14.360Z,46.73
2023-05-05T04:13:17.240Z,46.75
2023-05-05T04:16:20.735Z,46.75
2023-05-05T04:19:23.560Z,46.72
2023-05-05T04:22:27.781Z,46.78
2023-05-05T04:25:30.669Z,46.66
2023-05-05T04:28:33.756Z,46.64
2023-05-05T04:31:36.773Z,46.67
2023-05-05T04:34:39.627Z,46.72
2023-05-05T04:37:43.960Z,46.70
2023-05-05T04:40:46.897Z,46.72
2023-05-05T04:43:49.801Z,46.74
2023-05-05T04:46:52.711Z,46.76
2023-05-05T04:49:56.978Z,46.72
2023-05-05T04:53:01.229Z,46.59
2023-05-05T04:56:04.167Z,46.72
2023-05-05T04:59:07.560Z,46.67
2023-05-05T05:02:10.413Z,46.61
2023-05-05T05:05:13.283Z,46.52
2023-05-05T05:08:18.456Z,46.45
2023-05-05T05:11:21.451Z,46.58
2023-05-05T05:14:24.342Z,46.64
2023-05-05T05:17:27.382Z,46.75
2023-05-05T05:20:31.044Z,46.79
2023-05-05T05:23:35.408Z,46.79
2023-05-05T05:26:38.527Z,46.78
2023-05-05T05:29:42.404Z,46.83
2023-05-05T05:32:45.505Z,46.88
2023-05-05T05:35:48.308Z,46.83
2023-05-05T05:38:53.205Z,46.81
2023-05-05T05:41:56.017Z,46.74
2023-05-05T05:44:59.485Z,46.82
2023-05-05T05:48:02.671Z,46.78
2023-05-05T05:51:05.810Z,46.81
2023-05-05T05:54:10.068Z,46.77
2023-05-05T05:57:13.156Z,46.76
2023-05-05T06:00:16.837Z,46.76
2023-05-05T06:03:26.697Z,46.74
2023-05-05T06:06:29.663Z,46.68
2023-05-05T06:09:33.799Z,46.71
2023-05-05T06:12:36.677Z,46.72
2023-05-05T06:15:39.588Z,46.64
2023-05-05T06:18:43.164Z,46.61
2023-05-05T06:21:45.952Z,46.58
2023-05-05T06:24:50.100Z,46.59
2023-05-05T06:27:53.386Z,46.62
2023-05-05T06:30:56.464Z,46.58
2023-05-05T06:33:59.265Z,46.56
2023-05-05T06:37:02.088Z,46.60
2023-05-05T06:40:07.978Z,46.77
2023-05-05T06:43:11.158Z,46.62
2023-05-05T06:46:18.585Z,46.63
2023-05-05T06:49:21.684Z,46.64
2023-05-05T06:52:24.489Z,46.45
2023-05-05T06:55:28.752Z,46.58
2023-05-05T06:58:31.617Z,46.56
2023-05-05T07:01:34.393Z,46.54
2023-05-05T07:04:37.447Z,46.46
2023-05-05T07:07:42.278Z,46.52
2023-05-05T07:10:47.134Z,46.56
2023-05-05T07:13:50.320Z,46.47
2023-05-05T07:16:53.128Z,46.55
2023-05-05T07:19:56.023Z,46.62
2023-05-05T07:22:58.790Z,46.57
2023-05-05T07:26:02.986Z,46.65
2023-05-05T07:29:07.127Z,46.56
2023-05-05T07:32:09.954Z,46.51
2023-05-05T07:35:13.152Z,46.51
2023-05-05T07:38:16.118Z,46.52
2023-05-05T07:41:20.258Z,46.62
2023-05-05T07:44:23.105Z,46.55
2023-05-05T07:47:25.996Z,46.57
2023-05-05T07:50:28.949Z,46.67
2023-05-05T07:53:32.000Z,46.80
2023-05-05T07:56:36.147Z,46.81
2023-05-05T07:59:43.203Z,46.83
2023-05-05T08:02:46.400Z,46.63
2023-05-05T08:05:51.599Z,46.74
2023-05-05T08:08:54.961Z,46.61
2023-05-05T08:11:59.071Z,46.72
2023-05-05T08:15:01.849Z,46.63
2023-05-05T08:18:04.874Z,46.73
2023-05-05T08:21:09.108Z,46.53
2023-05-05T08:24:11.925Z,46.68
2023-05-05T08:27:16.052Z,46.63
2023-05-05T08:30:20.820Z,46.66
2023-05-05T08:33:23.646Z,46.79
2023-05-05T08:36:27.246Z,46.71
2023-05-05T08:39:30.021Z,46.85
2023-05-05T08:42:38.525Z,46.80
2023-05-05T08:45:43.044Z,46.96
2023-05-05T08:48:46.947Z,46.93
2023-05-05T08:51:52.210Z,46.77
2023-05-05T08:55:02.086Z,46.88
2023-05-05T08:58:07.345Z,46.86
2023-05-05T09:01:11.480Z,46.86
2023-05-05T09:04:14.368Z,46.93
2023-05-05T09:07:17.224Z,46.96
2023-05-05T09:10:20.593Z,46.93
2023-05-05T09:13:24.875Z,46.74
2023-05-05T09:16:27.598Z,46.59
2023-05-05T09:19:30.355Z,46.62
2023-05-05T09:22:37.739Z,47.10
2023-05-05T09:25:41.186Z,48.70
2023-05-05T09:28:53.879Z,48.31
2023-05-05T09:32:05.869Z,47.51
2023-05-05T09:35:09.743Z,47.05
2023-05-05T09:38:12.964Z,46.65
2023-05-05T09:41:15.970Z,46.00
2023-05-05T09:44:34.581Z,45.61
2023-05-05T09:47:38.237Z,44.88
2023-05-05T09:50:45.117Z,44.54
2023-05-05T09:53:47.963Z,43.94
2023-05-05T09:56:52.371Z,44.09
2023-05-05T10:00:00.698Z,43.85
2023-05-05T10:03:03.989Z,43.59
2023-05-05T10:06:07.819Z,43.30
2023-05-05T10:09:10.811Z,43.37
2023-05-05T10:12:13.613Z,42.72
2023-05-05T10:15:18.106Z,42.51
2023-05-05T10:18:23.341Z,42.40
2023-05-05T10:21:26.813Z,42.33
2023-05-05T10:24:38.111Z,42.12
2023-05-05T10:27:45.922Z,42.06
2023-05-05T10:30:53.359Z,42.00
2023-05-05T10:34:03.889Z,42.11
2023-05-05T10:37:07.783Z,42.06
2023-05-05T10:40:11.743Z,42.12
2023-05-05T10:43:14.951Z,41.97
2023-05-05T10:46:19.391Z,41.43
2023-05-05T10:49:29.683Z,41.28
2023-05-05T10:52:38.806Z,40.77
2023-05-05T10:55:48.313Z,40.63
2023-05-05T10:58:59.800Z,40.58
2023-05-05T11:02:19.450Z,40.64
2023-05-05T11:05:22.529Z,40.60
2023-05-05T11:08:28.533Z,40.59
2023-05-05T11:12:05.135Z,40.68
2023-05-05T11:15:41.575Z,40.90
2023-05-05T11:18:45.803Z,41.00
2023-05-05T11:22:01.636Z,41.30
2023-05-05T11:25:37.075Z,41.60
2023-05-05T11:28:58.577Z,41.72
2023-05-05T11:32:14.266Z,41.85
2023-05-05T11:35:18.745Z,42.04
2023-05-05T11:38:27.094Z,42.11
2023-05-05T11:42:08.121Z,42.32
2023-05-05T11:45:24.043Z,42.44
2023-05-05T11:48:27.454Z,42.49
2023-05-05T11:51:32.712Z,42.60
2023-05-05T11:54:36.753Z,42.75
2023-05-05T11:57:39.463Z,42.86
2023-05-05T12:00:42.329Z,43.25
2023-05-05T12:03:46.378Z,43.50
2023-05-05T12:06:50.702Z,43.59
2023-05-05T12:09:53.974Z,43.95
2023-05-05T12:12:56.786Z,44.03
2023-05-05T12:16:09.543Z,44.32
2023-05-05T12:19:14.351Z,44.35
2023-05-05T12:22:23.120Z,44.48
2023-05-05T12:25:26.599Z,44.66
2023-05-05T12:28:44.263Z,44.68
2023-05-05T12:31:47.140Z,44.79
2023-05-05T12:34:54.113Z,44.80
2023-05-05T12:37:58.591Z,44.55
2023-05-05T12:41:01.336Z,44.57
2023-05-05T12:44:04.378Z,44.61
2023-05-05T12:47:08.221Z,44.68
2023-05-05T12:50:11.421Z,44.78
2023-05-05T12:53:22.982Z,44.76
2023-05-05T12:56:33.304Z,44.85
2023-05-05T12:59:36.284Z,44.99
2023-05-05T13:02:39.140Z,44.90
2023-05-05T13:05:41.944Z,45.03
2023-05-05T13:08:46.063Z,44.90
2023-05-05T13:11:49.089Z,45.07
2023-05-05T13:14:51.842Z,45.05
2023-05-05T13:18:00.512Z,45.21
2023-05-05T13:21:03.283Z,45.18
2023-05-05T13:24:23.466Z,45.19
2023-05-05T13:27:28.624Z,45.15
2023-05-05T13:30:31.340Z,45.21
2023-05-05T13:33:34.603Z,45.22
2023-05-05T13:36:37.730Z,45.24
2023-05-05T13:39:41.835Z,45.23
2023-05-05T13:42:44.590Z,45.07
2023-05-05T13:45:47.359Z,45.19
2023-05-05T13:48:52.497Z,45.13
2023-05-05T13:51:58.906Z,45.27
2023-05-05T13:55:02.983Z,45.17
2023-05-05T13:58:05.775Z,45.11
2023-05-05T14:01:08.621Z,45.29
2023-05-05T14:04:11.549Z,45.21
2023-05-05T14:07:14.331Z,45.19
2023-05-05T14:10:18.702Z,45.20
2023-05-05T14:13:21.489Z,45.23
2023-05-05T14:16:24.349Z,45.16
2023-05-05T14:19:27.597Z,45.13
2023-05-05T14:22:30.362Z,45.19
2023-05-05T14:25:34.449Z,45.39
2023-05-05T14:28:37.250Z,45.41
2023-05-05T14:31:40.002Z,45.36
2023-05-05T14:34:42.799Z,45.33
2023-05-05T14:37:45.580Z,45.35
2023-05-05T14:40:49.737Z,45.40
2023-05-05T14:43:52.573Z,45.41
2023-05-05T14:46:55.368Z,45.62
2023-05-05T14:49:58.396Z,45.67
2023-05-05T14:53:01.157Z,45.62
2023-05-05T14:56:05.649Z,45.70
2023-05-05T14:59:08.371Z,45.65
2023-05-05T15:02:11.093Z,46.07
2023-05-05T15:05:13.816Z,47.02
2023-05-05T15:08:18.622Z,46.34
2023-05-05T15:11:22.906Z,46.48
2023-05-05T15:14:26.471Z,46.36
2023-05-05T15:17:30.753Z,46.24
2023-05-05T15:20:33.727Z,46.28
2023-05-05T15:23:36.831Z,46.41
2023-05-05T15:26:40.984Z,46.27
2023-05-05T15:29:43.793Z,46.05
2023-05-05T15:32:46.660Z,46.05
2023-05-05T15:35:49.428Z,45.92
2023-05-05T15:38:52.197Z,45.93
2023-05-05T15:41:56.402Z,46.09
2023-05-05T15:45:00.156Z,45.89
2023-05-05T15:48:03.022Z,46.07
2023-05-05T15:51:05.872Z,46.06
2023-05-05T15:54:08.797Z,46.03
2023-05-05T15:57:12.877Z,46.17
2023-05-05T16:00:16.304Z,45.97
2023-05-05T16:03:19.160Z,45.77
2023-05-05T16:06:22.033Z,45.71
2023-05-05T16:09:24.883Z,45.35
2023-05-05T16:12:28.997Z,45.17
2023-05-05T16:15:31.776Z,45.20
2023-05-05T16:18:34.693Z,44.94
2023-05-05T16:21:37.487Z,45.08
2023-05-05T16:24:41.482Z,44.90
2023-05-05T16:27:47.228Z,44.64
2023-05-05T16:30:49.970Z,44.70
2023-05-05T16:33:52.760Z,44.48
2023-05-05T16:36:56.655Z,44.41
2023-05-05T16:40:01.290Z,44.22
2023-05-05T16:43:05.571Z,44.07
2023-05-05T16:46:08.392Z,44.18
2023-05-05T16:49:11.195Z,44.03
2023-05-05T16:52:13.962Z,44.09
2023-05-05T16:55:16.800Z,44.00
2023-05-05T16:58:21.007Z,43.91
2023-05-05T17:01:23.950Z,43.85
2023-05-05T17:04:27.104Z,43.78
2023-05-05T17:07:29.849Z,43.80
2023-05-05T17:10:32.558Z,43.88
2023-05-05T17:13:36.828Z,43.77
2023-05-05T17:16:39.632Z,43.87
2023-05-05T17:19:44.764Z,43.78
2023-05-05T17:22:47.557Z,43.75
2023-05-05T17:25:50.353Z,43.83
2023-05-05T17:28:54.489Z,43.69
2023-05-05T17:31:57.253Z,43.55
2023-05-05T17:34:59.988Z,43.63
2023-05-05T17:38:02.721Z,43.52
2023-05-05T17:41:06.417Z,43.29
2023-05-05T17:44:10.605Z,43.23
2023-05-05T17:47:13.360Z,43.16
2023-05-05T17:50:16.110Z,43.26
2023-05-05T17:53:18.841Z,43.51
2023-05-05T17:56:22.158Z,43.59
2023-05-05T17:59:26.541Z,43.70
2023-05-05T18:02:29.489Z,43.82
2023-05-05T18:05:32.349Z,43.79
2023-05-05T18:08:35.174Z,43.75
2023-05-05T18:11:37.951Z,43.82
2023-05-05T18:14:42.073Z,44.18
2023-05-05T18:17:44.895Z,44.23
2023-05-05T18:20:47.623Z,44.27
2023-05-05T18:23:50.820Z,44.49
2023-05-05T18:26:53.737Z,44.58
2023-05-05T18:29:57.831Z,44.88
2023-05-05T18:33:00.669Z,44.98
2023-05-05T18:36:04.293Z,44.92
2023-05-05T18:39:07.129Z,45.17
2023-05-05T18:42:09.908Z,45.17
2023-05-05T18:45:14.383Z,45.12
2023-05-05T18:48:17.245Z,45.23
2023-05-05T18:51:20.020Z,45.20
2023-05-05T18:54:22.852Z,45.16
2023-05-05T18:57:25.594Z,45.30
2023-05-05T19:00:29.746Z,45.33
2023-05-05T19:03:33.795Z,45.27
2023-05-05T19:06:36.920Z,45.44
2023-05-05T19:09:39.806Z,45.37
2023-05-05T19:12:42.629Z,45.30
2023-05-05T19:15:46.869Z,45.32
2023-05-05T19:18:50.727Z,45.43
2023-05-05T19:21:53.524Z,45.27
2023-05-05T19:24:56.231Z,45.32
2023-05-05T19:27:58.980Z,45.24
2023-05-05T19:31:03.376Z,45.26
2023-05-05T19:34:06.427Z,45.40
2023-05-05T19:37:09.177Z,45.25
2023-05-05T19:40:12.815Z,45.21
2023-05-05T19:43:15.952Z,45.34
2023-05-05T19:46:20.705Z,45.23
2023-05-05T19:49:23.559Z,45.35
2023-05-05T19:52:26.760Z,45.34
2023-05-05T19:55:29.517Z,45.48
2023-05-05T19:58:35.190Z,45.37
2023-05-05T20:01:39.469Z,45.33
2023-05-05T20:04:42.277Z,45.30
2023-05-05T20:07:46.284Z,45.29
2023-05-05T20:10:50.648Z,45.38
2023-05-05T20:13:53.707Z,45.39
2023-05-05T20:16:57.819Z,45.50
2023-05-05T20:20:00.619Z,45.41
2023-05-05T20:23:03.373Z,45.25
2023-05-05T20:26:06.426Z,45.27
2023-05-05T20:29:09.273Z,45.23
2023-05-05T20:32:13.531Z,45.28
2023-05-05T20:35:16.810Z,45.32
2023-05-05T20:38:19.582Z,45.26
2023-05-05T20:41:22.312Z,45.29
2023-05-05T20:44:25.095Z,45.18
2023-05-05T20:47:29.361Z,45.19
2023-05-05T20:50:32.241Z,45.22
2023-05-05T20:53:35.105Z,45.25
2023-05-05T20:56:37.872Z,45.17
2023-05-05T20:59:40.662Z,45.29
2023-05-05T21:02:44.869Z,45.07
2023-05-05T21:05:47.773Z,45.26
2023-05-05T21:08:50.637Z,45.22
2023-05-05T21:11:53.561Z,45.19
2023-05-05T21:14:58.579Z,45.27
2023-05-05T21:18:02.759Z,45.24
2023-05-05T21:21:05.639Z,45.07
2023-05-05T21:24:09.175Z,45.20
2023-05-05T21:27:11.923Z,45.05
2023-05-05T21:30:15.559Z,45.09
2023-05-05T21:33:19.976Z,45.01
2023-05-05T21:36:22.966Z,44.90
2023-05-05T21:39:25.933Z,44.86
2023-05-05T21:42:30.665Z,44.89
2023-05-05T21:45:33.938Z,44.91
2023-05-05T21:48:38.841Z,44.91
2023-05-05T21:51:42.119Z,45.04
2023-05-05T21:54:44.879Z,44.94
2023-05-05T21:57:47.654Z,45.04
2023-05-05T22:00:50.711Z,45.03
2023-05-05T22:03:55.103Z,44.94
2023-05-05T22:06:58.023Z,44.87
2023-05-05T22:10:01.616Z,44.96
2023-05-05T22:13:04.518Z,44.82
2023-05-05T22:16:07.899Z,44.89
2023-05-05T22:19:12.036Z,44.85
2023-05-05T22:22:15.972Z,44.75
2023-05-05T22:25:18.756Z,44.78
2023-05-05T22:28:22.245Z,44.81
2023-05-05T22:31:24.993Z,44.88
2023-05-05T22:34:29.168Z,44.89
2023-05-05T22:37:32.142Z,44.95
2023-05-05T22:40:35.010Z,44.79
2023-05-05T22:43:37.746Z,44.76
2023-05-05T22:46:40.912Z,44.82
2023-05-05T22:49:45.088Z,44.86
2023-05-05T22:52:48.039Z,44.91
2023-05-05T22:55:51.646Z,44.92
2023-05-05T22:58:54.428Z,44.72
2023-05-05T23:01:57.234Z,44.78
2023-05-05T23:05:01.465Z,44.79
2023-05-05T23:08:04.390Z,44.78
2023-05-05T23:11:07.175Z,44.80
2023-05-05T23:14:09.961Z,44.91
2023-05-05T23:17:12.864Z,44.73
2023-05-05T23:20:17.206Z,44.75
2023-05-05T23:23:20.000Z,44.76
2023-05-05T23:26:22.826Z,44.80
2023-05-05T23:29:25.654Z,44.79
2023-05-05T23:32:28.449Z,44.58
2023-05-05T23:35:32.657Z,44.81
2023-05-05T23:38:35.539Z,44.79
2023-05-05T23:41:38.550Z,44.79
2023-05-05T23:44:41.353Z,44.84
2023-05-05T23:47:44.186Z,44.84
2023-05-05T23:50:48.415Z,44.89
2023-05-05T23:53:51.196Z,44.80
2023-05-05T23:56:53.968Z,44.81
2023-05-05T23:59:56.712Z,44.71
